Time;durP1;ratioP1;P1;durP2;ratioP2;P2;SDS_P1;SDS_P2;PMS_P1;PMS_P2;Temp;Humidity;BMP_temperature;BMP_pressure;BME280_temperature;BME280_humidity;BME280_pressure;Samples;Min_cycle;Max_cycle;Signal;HPM_P1;HPM_P2
2023/08/01 00:01:04;;;;;;;9.65;8.20;;;;;;;;;;5094379;28;20024;-78
2023/08/01 00:03:31;;;;;;;9.23;7.38;;;;;;;;;;5092485;28;20112;-79
2023/08/01 00:05:57;;;;;;;10.15;8.30;;;;;;;;;;5094550;28;20031;-79
2023/08/01 00:08:23;;;;;;;9.80;7.10;;;;;;;;;;5094550;28;20024;-79
2023/08/01 00:10:49;;;;;;;11.35;8.30;;;;;;;;;;5092817;28;20502;-78
2023/08/01 00:13:15;;;;;;;9.93;8.00;;;;;;;;;;5094307;28;20020;-79
2023/08/01 00:15:41;;;;;;;10.65;7.60;;;;;;;;;;5092932;28;20048;-79
2023/08/01 00:18:07;;;;;;;11.00;9.05;;;512.60;2380.80;;;;;;5092710;28;20024;-79
2023/08/01 00:20:33;;;;;;;11.00;7.72;;;512.20;2380.80;;;;;;5093084;28;20502;-79
2023/08/01 00:22:59;;;;;;;12.18;8.02;;;;;;;;;;5093009;28;20028;-79
2023/08/01 00:25:25;;;;;;;9.95;8.10;;;;;;;;;;5090351;28;20503;-78
2023/08/01 00:27:51;;;;;;;8.15;7.05;;;;;;;;;;5092392;28;20028;-79
2023/08/01 00:30:17;;;;;;;11.75;8.00;;;512.50;2380.80;;;;;;5091176;28;20024;-79
2023/08/01 00:32:43;;;;;;;12.75;7.60;;;512.40;2380.80;;;;;;5090627;28;20028;-79
2023/08/01 00:35:08;;;;;;;11.00;8.25;;;512.40;2380.80;;;;;;5090911;28;20076;-78
2023/08/01 00:37:34;;;;;;;8.50;7.20;;;512.30;2380.80;;;;;;5090750;28;20483;-78
2023/08/01 00:40:00;;;;;;;8.15;7.28;;;512.30;2380.80;;;;;;5090253;28;20499;-79
2023/08/01 00:42:26;;;;;;;12.23;8.60;;;512.20;2380.80;;;;;;5090841;28;20104;-78
2023/08/01 00:44:53;;;;;;;11.05;7.63;;;512.00;2380.80;;;;;;5090542;28;20028;-80
2023/08/01 00:47:19;;;;;;;9.98;7.70;;;512.10;2380.80;;;;;;5109075;28;20032;-79
2023/08/01 00:49:45;;;;;;;10.57;7.03;;;512.10;2380.80;;;;;;5107742;28;20021;-79
2023/08/01 00:52:11;;;;;;;11.23;7.93;;;512.00;2380.80;;;;;;5093748;28;20055;-77
2023/08/01 00:54:37;;;;;;;11.65;7.85;;;487.20;2380.80;;;;;;5113691;28;20038;-77
2023/08/01 00:57:04;;;;;;;10.25;7.78;;;487.10;2380.80;;;;;;5097606;28;20074;-78
2023/08/01 00:59:30;;;;;;;11.13;8.18;;;487.30;2380.80;;;;;;5070426;28;20029;-79
2023/08/01 01:01:56;;;;;;;8.20;6.80;;;487.30;2380.80;;;;;;5070335;28;20025;-79
2023/08/01 01:04:22;;;;;;;8.93;8.02;;;512.00;2380.80;;;;;;5075540;28;20023;-79
2023/08/01 01:06:54;;;;;;;10.68;7.53;;;512.00;2380.80;;;;;;5082472;28;20115;-79
2023/08/01 01:09:20;;;;;;;11.32;7.70;;;512.00;2380.80;;;;;;5071745;28;20027;-79
2023/08/01 01:11:46;;;;;;;8.13;7.20;;;487.10;2380.80;;;;;;5080760;28;20028;-79
2023/08/01 01:14:12;;;;;;;8.32;7.43;;;487.30;2380.80;;;;;;5090040;28;20032;-78
2023/08/01 01:16:38;;;;;;;8.30;6.78;;;487.20;2380.80;;;;;;5072065;28;20040;-78
2023/08/01 01:19:07;;;;;;;9.55;7.63;;;487.10;2380.80;;;;;;5072080;28;20033;-79
2023/08/01 01:21:39;;;;;;;9.73;7.85;;;487.00;2380.80;;;;;;5071860;28;20033;-80
2023/08/01 01:24:07;;;;;;;9.30;6.90;;;487.10;2380.80;;;;;;5072173;28;20452;-79
2023/08/01 01:26:34;;;;;;;9.23;6.57;;;487.00;2380.80;;;;;;5085173;28;20272;-79
2023/08/01 01:29:02;;;;;;;6.82;6.13;;;487.00;2380.80;;;;;;5090867;28;20383;-79
2023/08/01 01:31:28;;;;;;;7.95;7.05;;;487.00;2380.80;;;;;;5089688;28;20100;-80
2023/08/01 01:33:55;;;;;;;8.57;6.80;;;486.80;2380.80;;;;;;5090941;28;20028;-79
2023/08/01 01:36:21;;;;;;;8.45;7.20;;;486.70;2380.80;;;;;;5089569;28;20032;-79
2023/08/01 01:38:46;;;;;;;8.88;6.85;;;486.80;2380.80;;;;;;5091799;28;20026;-78
2023/08/01 01:41:12;;;;;;;10.68;6.97;;;486.80;2380.80;;;;;;5091043;28;20055;-77
2023/08/01 01:43:38;;;;;;;9.52;6.47;;;486.70;2380.80;;;;;;5091993;28;20024;-77
2023/08/01 01:46:04;;;;;;;12.63;7.00;;;486.80;2380.80;;;;;;5094062;28;20392;-78
2023/08/01 01:48:30;;;;;;;8.45;6.30;;;486.80;2380.80;;;;;;5079271;28;20479;-79
2023/08/01 01:50:56;;;;;;;7.10;6.05;;;486.80;2380.80;;;;;;5076087;28;20017;-77
2023/08/01 01:53:21;;;;;;;7.95;6.28;;;486.50;2380.80;;;;;;5075067;28;20452;-78
2023/08/01 01:55:47;;;;;;;9.40;6.45;;;486.60;2380.80;;;;;;5075326;28;20025;-77
2023/08/01 01:58:13;;;;;;;9.50;6.32;;;486.70;2380.80;;;;;;5074275;28;20109;-78
2023/08/01 02:00:38;;;;;;;7.70;5.57;;;486.70;2380.80;;;;;;5074762;28;20372;-78
2023/08/01 02:03:07;;;;;;;9.00;6.28;;;486.60;2380.80;;;;;;5073117;28;20056;-78
2023/08/01 02:05:33;;;;;;;6.53;5.82;;;486.70;2380.80;;;;;;5090297;28;20024;-78
2023/08/01 02:07:58;;;;;;;9.38;6.35;;;486.70;2380.80;;;;;;5073391;28;20427;-78
2023/08/01 02:10:24;;;;;;;6.68;5.95;;;486.70;2380.80;;;;;;5073854;28;20045;-78
2023/08/01 02:12:50;;;;;;;13.32;6.50;;;486.50;2380.80;;;;;;5091530;28;20020;-80
2023/08/01 02:15:16;;;;;;;9.70;6.65;;;486.60;2380.80;;;;;;5110592;28;20028;-78
2023/08/01 02:17:41;;;;;;;7.50;5.68;;;486.50;2380.80;;;;;;5110089;28;20028;-79
2023/08/01 02:20:08;;;;;;;8.50;6.93;;;486.50;2380.80;;;;;;5094556;28;20380;-79
2023/08/01 02:22:33;;;;;;;10.98;6.13;;;486.50;2380.80;;;;;;5094460;28;20031;-78
2023/08/01 02:24:59;;;;;;;9.65;6.20;;;486.40;2380.80;;;;;;5094345;28;20024;-78
2023/08/01 02:27:25;;;;;;;10.65;6.50;;;486.50;2380.80;;;;;;5110704;28;20542;-79
2023/08/01 02:29:51;;;;;;;7.80;6.45;;;;;;;;;;5111486;28;20032;-78
2023/08/01 02:32:17;;;;;;;9.20;7.10;;;461.50;2380.80;;;;;;5110420;28;20025;-79
2023/08/01 02:34:43;;;;;;;7.40;6.57;;;461.50;2380.80;;;;;;5094479;28;20123;-79
2023/08/01 02:37:09;;;;;;;7.97;7.13;;;461.40;2380.80;;;;;;5094234;28;20515;-79
2023/08/01 02:39:35;;;;;;;9.18;6.70;;;461.40;2380.80;;;;;;5093916;28;20032;-78
2023/08/01 02:42:01;;;;;;;10.10;7.05;;;461.60;2380.80;;;;;;5109931;28;20051;-79
2023/08/01 02:44:27;;;;;;;8.30;6.60;;;461.40;2380.80;;;;;;5094402;28;20452;-79
2023/08/01 02:46:53;;;;;;;11.60;6.90;;;461.50;2380.80;;;;;;5110530;28;20053;-79
2023/08/01 02:49:19;;;;;;;11.80;6.88;;;461.50;2380.80;;;;;;5109624;28;20029;-79
2023/08/01 02:51:45;;;;;;;10.38;7.50;;;461.60;2380.80;;;;;;5101202;28;20021;-78
2023/08/01 02:54:10;;;;;;;10.68;7.45;;;461.50;2380.80;;;;;;5090964;28;20028;-80
2023/08/01 02:56:40;;;;;;;7.82;5.85;;;461.50;2380.80;;;;;;5074125;28;20028;-79
2023/08/01 02:59:08;;;;;;;7.32;6.53;;;461.50;2380.80;;;;;;5073881;28;20082;-79
2023/08/01 03:01:35;;;;;;;7.60;6.63;;;461.60;2380.80;;;;;;5074192;28;20035;-80
2023/08/01 03:04:03;;;;;;;9.25;6.30;;;461.60;2380.80;;;;;;5077745;28;20032;-79
2023/08/01 03:06:29;;;;;;;7.93;6.60;;;461.60;2380.80;;;;;;5094856;28;20493;-78
2023/08/01 03:08:55;;;;;;;8.68;6.93;;;461.60;2380.80;;;;;;5094341;28;20040;-79
2023/08/01 03:11:21;;;;;;;10.18;6.45;;;461.70;2380.80;;;;;;5094076;28;20127;-78
2023/08/01 03:13:47;;;;;;;10.38;6.80;;;461.50;2380.80;;;;;;5095213;28;20028;-79
2023/08/01 03:16:12;;;;;;;11.23;6.47;;;461.50;2380.80;;;;;;5094168;28;20039;-79
2023/08/01 03:18:38;;;;;;;9.82;6.13;;;461.40;2380.80;;;;;;5094374;28;20127;-79
2023/08/01 03:21:04;;;;;;;10.48;6.95;;;461.40;2380.80;;;;;;5093951;28;20090;-79
2023/08/01 03:23:30;;;;;;;9.70;6.47;;;461.40;2380.80;;;;;;5093938;28;20028;-78
2023/08/01 03:25:56;;;;;;;9.40;6.32;;;461.40;2380.80;;;;;;5093885;28;20085;-79
2023/08/01 03:28:22;;;;;;;7.00;6.20;;;461.50;2380.80;;;;;;5093650;28;20024;-79
2023/08/01 03:30:50;;;;;;;8.27;6.45;;;461.40;2380.80;;;;;;5093857;28;20024;-79
2023/08/01 03:33:16;;;;;;;9.27;6.57;;;461.30;2380.80;;;;;;5095062;28;20027;-79
2023/08/01 03:35:42;;;;;;;13.15;6.93;;;461.40;2380.80;;;;;;5093417;28;20042;-79
2023/08/01 03:38:08;;;;;;;7.85;6.38;;;461.40;2380.80;;;;;;5093728;28;20119;-79
2023/08/01 03:40:34;;;;;;;7.90;6.50;;;461.30;2380.80;;;;;;5095233;28;20031;-79
2023/08/01 03:42:59;;;;;;;6.97;6.28;;;461.20;2380.80;;;;;;5094567;28;20024;-79
2023/08/01 03:45:25;;;;;;;7.47;5.97;;;461.30;2380.80;;;;;;5094822;28;20456;-79
2023/08/01 03:47:51;;;;;;;11.48;6.88;;;461.30;2380.80;;;;;;5093498;28;20027;-79
2023/08/01 03:50:17;;;;;;;9.57;6.53;;;461.40;2380.80;;;;;;5094550;28;20028;-79
2023/08/01 03:52:42;;;;;;;11.65;6.00;;;461.20;2380.80;;;;;;5093462;28;20027;-79
2023/08/01 03:55:09;;;;;;;10.75;6.63;;;461.20;2380.80;;;;;;5094337;28;20464;-79
2023/08/01 03:57:34;;;;;;;9.10;6.20;;;461.30;2380.80;;;;;;5094314;28;20034;-79
2023/08/01 04:00:00;;;;;;;9.18;6.80;;;461.20;2380.80;;;;;;5093280;28;20451;-79
2023/08/01 04:02:26;;;;;;;10.77;6.40;;;461.30;2380.80;;;;;;5092772;28;20091;-78
2023/08/01 04:04:53;;;;;;;12.00;6.53;;;461.20;2380.80;;;;;;5093387;28;20123;-79
2023/08/01 04:07:18;;;;;;;8.20;6.25;;;461.30;2380.80;;;;;;5092532;28;20492;-78
2023/08/01 04:09:44;;;;;;;9.82;7.05;;;461.30;2380.80;;;;;;5092613;28;20055;-79
2023/08/01 04:12:10;;;;;;;7.95;6.72;;;461.20;2380.80;;;;;;5093196;28;20028;-79
2023/08/01 04:14:36;;;;;;;9.55;6.43;;;461.30;2380.80;;;;;;5093199;28;20464;-79
2023/08/01 04:17:02;;;;;;;8.57;6.03;;;461.30;2380.80;;;;;;5092284;28;20433;-79
2023/08/01 04:19:27;;;;;;;12.05;6.90;;;461.30;2380.80;;;;;;5093053;28;20032;-78
2023/08/01 04:21:53;;;;;;;10.82;7.03;;;461.40;2380.80;;;;;;5092928;28;20375;-79
2023/08/01 04:24:19;;;;;;;11.10;7.28;;;461.40;2380.80;;;;;;5092681;28;20031;-79
2023/08/01 04:26:45;;;;;;;10.98;7.22;;;461.40;2380.80;;;;;;5092885;28;20113;-80
2023/08/01 04:29:15;;;;;;;12.48;6.50;;;461.50;2380.80;;;;;;5092884;28;20456;-79
2023/08/01 04:31:40;;;;;;;11.98;7.22;;;461.50;2380.80;;;;;;5092405;28;20032;-79
2023/08/01 04:34:06;;;;;;;9.07;6.97;;;461.40;2380.80;;;;;;5093140;28;20024;-79
2023/08/01 04:36:32;;;;;;;11.82;6.80;;;461.40;2380.80;;;;;;5094020;28;20032;-78
2023/08/01 04:38:58;;;;;;;12.43;7.30;;;461.30;2380.80;;;;;;5092440;28;20024;-79
2023/08/01 04:41:23;;;;;;;9.88;7.18;;;461.20;2380.80;;;;;;5112069;28;20015;-77
2023/08/01 04:43:49;;;;;;;10.20;6.38;;;461.30;2380.80;;;;;;5104011;28;20070;-78
2023/08/01 04:46:15;;;;;;;10.30;7.20;;;461.20;2380.80;;;;;;5092403;28;20032;-79
2023/08/01 04:48:41;;;;;;;10.98;6.90;;;461.30;2380.80;;;;;;5092786;28;20024;-79
2023/08/01 04:51:06;;;;;;;11.70;6.68;;;461.30;2380.80;;;;;;5092320;28;20035;-78
2023/08/01 04:53:32;;;;;;;9.00;6.95;;;461.40;2380.80;;;;;;5092505;28;20025;-79
2023/08/01 04:55:58;;;;;;;9.25;6.95;;;461.40;2380.80;;;;;;5092498;28;20035;-79
2023/08/01 04:58:23;;;;;;;11.60;7.40;;;461.30;2380.80;;;;;;5092234;28;20035;-79
2023/08/01 05:00:49;;;;;;;8.52;7.00;;;461.40;2380.80;;;;;;5092434;28;20020;-80
2023/08/01 05:03:15;;;;;;;11.38;6.65;;;461.50;2380.80;;;;;;5093922;28;20028;-78
2023/08/01 05:05:41;;;;;;;9.02;6.30;;;461.60;2380.80;;;;;;5093528;28;20025;-79
2023/08/01 05:08:06;;;;;;;10.82;7.00;;;461.70;2380.80;;;;;;5092411;28;20020;-79
2023/08/01 05:10:32;;;;;;;8.20;7.00;;;486.40;2380.80;;;;;;5093607;28;20116;-80
2023/08/01 05:12:58;;;;;;;7.72;6.22;;;486.40;2380.80;;;;;;5073627;28;20380;-78
2023/08/01 05:15:24;;;;;;;10.98;6.75;;;486.50;2380.80;;;;;;5074548;28;20458;-79
2023/08/01 05:17:50;;;;;;;13.13;6.25;;;486.50;2380.80;;;;;;5088722;28;20036;-79
2023/08/01 05:20:16;;;;;;;8.93;6.53;;;486.70;2380.80;;;;;;5095264;28;20031;-79
2023/08/01 05:22:42;;;;;;;10.57;7.15;;;486.80;2380.80;;;;;;5095855;28;20063;-79
2023/08/01 05:25:08;;;;;;;8.63;6.03;;;486.80;2380.80;;;;;;5096624;28;20468;-79
2023/08/01 05:27:34;;;;;;;6.70;5.65;;;486.80;2380.80;;;;;;5094863;28;20085;-79
2023/08/01 05:30:00;;;;;;;8.55;6.03;;;486.80;2380.80;;;;;;5095628;28;20503;-79
2023/08/01 05:32:25;;;;;;;10.63;6.15;;;486.60;2380.80;;;;;;5094548;28;20028;-79
2023/08/01 05:34:51;;;;;;;10.35;6.18;;;486.70;2380.80;;;;;;5083255;28;20054;-80
2023/08/01 05:37:17;;;;;;;7.93;6.60;;;486.70;2380.80;;;;;;5096540;28;20020;-78
2023/08/01 05:39:43;;;;;;;8.77;6.78;;;486.60;2380.80;;;;;;5095619;28;20496;-81
2023/08/01 05:42:09;;;;;;;10.32;6.53;;;486.60;2380.80;;;;;;5095791;28;20055;-82
2023/08/01 05:44:35;;;;;;;8.35;7.07;;;486.80;2380.80;;;;;;5095225;28;20480;-81
2023/08/01 05:47:01;;;;;;;8.43;6.60;;;486.80;2380.80;;;;;;5095463;28;20035;-80
2023/08/01 05:49:28;;;;;;;11.15;8.10;;;486.80;2380.80;;;;;;5095385;28;20016;-78
2023/08/01 05:51:53;;;;;;;13.13;8.40;;;486.80;2380.80;;;;;;5095382;28;20383;-78
2023/08/01 05:54:19;;;;;;;8.85;7.63;;;486.80;2380.80;;;;;;5094313;28;20024;-77
2023/08/01 05:56:45;;;;;;;12.20;8.77;;;487.00;2380.80;;;;;;5092921;28;20399;-78
2023/08/01 05:59:11;;;;;;;17.77;11.80;;;487.20;2380.80;;;;;;5095512;28;20038;-78
2023/08/01 06:01:37;;;;;;;21.48;14.13;;;487.30;2380.80;;;;;;5094020;28;20035;-78
2023/08/01 06:04:03;;;;;;;14.82;11.38;;;487.20;2380.80;;;;;;5095300;28;20026;-78
2023/08/01 06:06:28;;;;;;;9.35;7.82;;;487.30;2380.80;;;;;;5094575;28;20085;-77
2023/08/01 06:08:54;;;;;;;13.05;8.23;;;487.30;2380.80;;;;;;5092042;28;20059;-78
2023/08/01 06:11:20;;;;;;;13.88;8.52;;;512.10;2380.80;;;;;;5094108;28;20048;-78
2023/08/01 06:13:46;;;;;;;14.40;10.20;;;512.20;2380.80;;;;;;5095788;28;20024;-78
2023/08/01 06:16:12;;;;;;;13.68;10.95;;;512.50;2380.80;;;;;;5094424;28;20039;-78
2023/08/01 06:18:37;;;;;;;14.65;9.50;;;512.60;2380.80;;;;;;5094873;28;20028;-78
2023/08/01 06:21:03;;;;;;;14.07;11.30;;;512.70;2380.80;;;;;;5096364;28;20404;-78
2023/08/01 06:23:29;;;;;;;14.57;10.80;;;512.90;2380.80;;;;;;5094930;28;20032;-78
2023/08/01 06:25:55;;;;;;;9.95;7.97;;;537.60;2406.40;;;;;;5095268;28;20089;-78
2023/08/01 06:28:20;;;;;;;11.95;7.97;;;537.60;2406.40;;;;;;5094256;28;20097;-79
2023/08/01 06:30:46;;;;;;;7.22;5.78;;;537.60;2406.40;;;;;;5094693;28;20369;-78
2023/08/01 06:33:12;;;;;;;8.85;7.00;;;537.70;2406.40;;;;;;5094952;28;20027;-77
2023/08/01 06:35:38;;;;;;;7.93;5.80;;;537.80;2406.40;;;;;;5096324;28;20020;-78
2023/08/01 06:38:03;;;;;;;6.95;5.43;;;538.00;2406.40;;;;;;5094561;28;20476;-78
2023/08/01 06:40:29;;;;;;;10.52;6.15;;;538.10;2406.40;;;;;;5096252;28;20364;-78
2023/08/01 06:42:55;;;;;;;11.02;6.88;;;538.10;2406.40;;;;;;5094778;28;20024;-78
2023/08/01 06:45:21;;;;;;;10.30;6.32;;;538.30;2406.40;;;;;;5094497;28;20031;-78
2023/08/01 06:47:46;;;;;;;7.65;5.50;;;538.40;2406.40;;;;;;5094993;28;20050;-78
2023/08/01 06:50:12;;;;;;;8.32;6.65;;;538.50;2406.40;;;;;;5094490;28;20115;-78
2023/08/01 06:52:38;;;;;;;9.98;7.20;;;563.20;2432.00;;;;;;5094747;28;20046;-78
2023/08/01 06:55:04;;;;;;;10.23;5.90;;;563.30;2432.00;;;;;;5095906;28;20035;-80
2023/08/01 06:57:30;;;;;;;12.30;6.20;;;563.50;2432.00;;;;;;5084911;28;20498;-81
2023/08/01 06:59:56;;;;;;;8.15;5.32;;;563.70;2432.00;;;;;;5074222;28;20032;-80
2023/08/01 07:02:22;;;;;;;6.60;5.43;;;563.80;2432.00;;;;;;5075254;28;20021;-81
2023/08/01 07:04:48;;;;;;;8.55;5.30;;;563.90;2432.00;;;;;;5073781;28;20377;-81
2023/08/01 07:07:13;;;;;;;6.43;5.70;;;564.10;2432.00;;;;;;5074264;28;20031;-81
2023/08/01 07:09:39;;;;;;;7.82;5.10;;;588.80;2432.00;;;;;;5074925;28;20053;-82
2023/08/01 07:12:05;;;;;;;7.05;5.35;;;588.90;2432.00;;;;;;5075226;28;20024;-82
2023/08/01 07:14:31;;;;;;;8.80;5.50;;;589.00;2432.00;;;;;;5074092;28;20048;-81
2023/08/01 07:16:57;;;;;;;7.53;4.70;;;589.20;2432.00;;;;;;5073540;28;20476;-82
2023/08/01 07:19:23;;;;;;;10.00;6.22;;;589.20;2432.00;;;;;;5073735;28;20055;-81
2023/08/01 07:21:49;;;;;;;9.68;5.60;;;589.30;2432.00;;;;;;5074048;28;20028;-82
2023/08/01 07:24:15;;;;;;;6.82;4.35;;;589.40;2432.00;;;;;;5073757;28;20428;-82
2023/08/01 07:26:41;;;;;;;7.97;4.90;;;589.40;2432.00;;;;;;5074952;28;20112;-82
2023/08/01 07:29:11;;;;;;;11.63;5.57;;;589.70;2432.00;;;;;;5073995;28;20115;-82
2023/08/01 07:31:37;;;;;;;8.93;6.13;;;589.70;2432.00;;;;;;5073718;28;20060;-82
2023/08/01 07:34:02;;;;;;;9.00;5.72;;;614.50;2432.00;;;;;;5073821;28;20070;-81
2023/08/01 07:36:29;;;;;;;9.32;5.22;;;614.50;2432.00;;;;;;5074068;28;20112;-82
2023/08/01 07:38:56;;;;;;;7.85;5.47;;;614.70;2432.00;;;;;;5075341;28;20025;-82
2023/08/01 07:41:22;;;;;;;8.18;5.00;;;614.90;2432.00;;;;;;5087906;28;20021;-82
2023/08/01 07:43:48;;;;;;;9.80;5.20;;;614.80;2432.00;;;;;;5092991;28;20046;-82
2023/08/01 07:46:14;;;;;;;5.78;4.53;;;614.70;2432.00;;;;;;5093343;28;20052;-82
2023/08/01 07:48:40;;;;;;;12.25;6.05;;;;;;;;;;5092290;28;20043;-82
2023/08/01 07:51:07;;;;;;;11.52;6.20;;;615.10;2432.00;;;;;;5095303;28;20379;-83
2023/08/01 07:53:34;;;;;;;12.20;6.60;;;615.20;2432.00;;;;;;5104520;28;20475;-79
2023/08/01 07:56:02;;;;;;;8.98;6.60;;;615.30;2432.00;;;;;;5097732;28;20525;-82
2023/08/01 07:58:31;;;;;;;8.70;5.43;;;615.20;2432.00;;;;;;5093396;28;20032;-83
2023/08/01 08:00:56;;;;;;;9.60;6.82;;;615.30;2432.00;;;;;;5093200;28;20399;-83
2023/08/01 08:03:24;;;;;;;8.55;4.82;;;640.20;2432.00;;;;;;5094632;28;20028;-83
2023/08/01 08:05:50;;;;;;;10.48;6.93;;;640.10;2432.00;;;;;;5093401;28;20036;-82
2023/08/01 08:08:15;;;;;;;8.35;6.80;;;640.40;2432.00;;;;;;5092812;28;20028;-81
2023/08/01 08:10:41;;;;;;;8.75;5.72;;;640.60;2432.00;;;;;;5091615;28;20055;-80
2023/08/01 08:13:07;;;;;;;6.80;4.35;;;640.70;2432.00;;;;;;5093884;28;20031;-80
2023/08/01 08:15:34;;;;;;;8.05;4.78;;;665.60;2432.00;;;;;;5092443;28;20028;-80
2023/08/01 08:18:04;;;;;;;7.38;4.43;;;665.60;2432.00;;;;;;5092896;28;20077;-80
2023/08/01 08:20:33;;;;;;;11.45;4.90;;;665.60;2432.00;;;;;;5094289;28;20032;-80
2023/08/01 08:22:59;;;;;;;7.90;4.95;;;665.90;2432.00;;;;;;5092591;28;20039;-79
2023/08/01 08:25:25;;;;;;;6.57;3.83;;;666.10;2432.00;;;;;;5092847;28;20114;-80
2023/08/01 08:27:50;;;;;;;5.88;3.80;;;666.20;2432.00;;;;;;5093029;28;20028;-79
2023/08/01 08:30:16;;;;;;;7.55;5.38;;;665.90;2432.00;;;;;;5093346;28;20067;-80
2023/08/01 08:32:42;;;;;;;7.00;4.43;;;666.00;2432.00;;;;;;5099773;28;20035;-80
2023/08/01 08:35:08;;;;;;;7.10;4.78;;;666.40;2432.00;;;;;;5118051;28;20015;-79
2023/08/01 08:37:34;;;;;;;7.72;4.40;;;666.50;2432.00;;;;;;5102457;28;20456;-79
2023/08/01 08:40:00;;;;;;;7.85;4.32;;;691.30;2432.00;;;;;;5094177;28;20104;-80
2023/08/01 08:42:25;;;;;;;9.10;3.72;;;691.30;2432.00;;;;;;5093177;28;20020;-78
2023/08/01 08:44:56;;;;;;;4.97;3.60;;;691.60;2432.00;;;;;;5093871;28;20099;-85
2023/08/01 08:47:25;;;;;;;7.18;3.85;;;691.70;2380.80;;;;;;5093739;28;20206;-83
2023/08/01 08:49:54;;;;;;;6.53;3.88;;;691.70;2380.80;;;;;;5092684;28;20028;-84
2023/08/01 08:52:21;;;;;;;12.70;4.15;;;691.90;2355.20;;;;;;5093210;28;20024;-83
2023/08/01 08:54:47;;;;;;;6.57;3.53;;;692.00;2355.20;;;;;;5093260;28;20438;-84
2023/08/01 08:57:13;;;;;;;6.50;3.78;;;692.10;2355.20;;;;;;5093130;28;20028;-83
2023/08/01 08:59:40;;;;;;;7.88;4.10;;;716.90;2355.20;;;;;;5093138;28;20464;-84
2023/08/01 09:02:06;;;;;;;7.63;5.13;;;716.90;2329.60;;;;;;5092859;28;20024;-83
2023/08/01 09:04:32;;;;;;;8.40;4.97;;;717.00;2329.60;;;;;;5093234;28;20024;-83
2023/08/01 09:07:02;;;;;;;8.13;4.30;;;717.10;2278.40;;;;;;5093099;28;20429;-83
2023/08/01 09:09:28;;;;;;;8.40;4.75;;;717.20;2252.80;;;;;;5092666;28;20021;-83
2023/08/01 09:11:57;;;;;;;8.27;4.20;;;717.20;2227.20;;;;;;5092794;28;20031;-81
2023/08/01 09:14:23;;;;;;;6.35;4.25;;;717.40;2227.20;;;;;;5092645;28;20020;-80
2023/08/01 09:16:49;;;;;;;6.80;4.72;;;717.50;2227.20;;;;;;5092378;28;20028;-82
2023/08/01 09:19:20;;;;;;;8.93;4.57;;;717.70;2150.40;;;;;;5091072;28;20066;-81
2023/08/01 09:21:46;;;;;;;6.25;4.38;;;742.50;2227.20;;;;;;5092355;28;20032;-82
2023/08/01 09:24:16;;;;;;;5.53;3.63;;;742.60;2201.60;;;;;;5086625;28;20076;-85
2023/08/01 09:26:43;;;;;;;6.03;3.80;;;742.60;2201.60;;;;;;5092323;28;20027;-84
2023/08/01 09:29:10;;;;;;;6.72;3.92;;;742.80;2227.20;;;;;;5092519;28;20016;-84
2023/08/01 09:31:43;;;;;;;7.57;3.80;;;742.80;2227.20;;;;;;5092180;28;20033;-84
2023/08/01 09:34:23;;;;;;;9.90;4.70;;;743.00;2176.00;;;;;;5093970;28;20460;-84
2023/08/01 09:36:50;;;;;;;9.20;3.92;;;742.90;2124.80;;;;;;5092514;28;20487;-84
2023/08/01 09:39:21;;;;;;;6.47;3.92;;;743.00;2150.40;;;;;;5092120;28;20464;-87
2023/08/01 09:41:58;;;;;;;6.20;3.80;;;743.10;2150.40;;;;;;5092248;28;20031;-85
2023/08/01 09:44:26;;;;;;;5.85;3.80;;;743.00;2124.80;;;;;;5092947;28;20074;-83
2023/08/01 09:47:00;;;;;;;6.38;3.97;;;743.20;2124.80;;;;;;5090758;28;20032;-85
2023/08/01 09:49:28;;;;;;;7.45;4.53;;;743.30;2124.80;;;;;;5088673;28;20025;-84
2023/08/01 09:51:54;;;;;;;4.90;3.50;;;743.20;2099.20;;;;;;5092214;28;20085;-85
2023/08/01 09:54:21;;;;;;;5.57;3.40;;;768.40;2099.20;;;;;;5084915;28;20024;-85
2023/08/01 09:56:49;;;;;;;7.25;3.13;;;768.60;2048.00;;;;;;5071938;28;20029;-84
2023/08/01 09:59:25;;;;;;;5.85;3.65;;;768.10;2048.00;;;;;;5072858;28;20423;-85
2023/08/01 10:01:53;;;;;;;7.18;3.55;;;743.30;2048.00;;;;;;5073223;28;20535;-86
2023/08/01 10:04:26;;;;;;;5.10;3.25;;;768.30;2048.00;;;;;;5073435;28;20029;-84
2023/08/01 10:06:59;;;;;;;5.80;3.10;;;768.60;2022.40;;;;;;5075213;28;20086;-83
2023/08/01 10:09:25;;;;;;;5.35;3.30;;;;;;;;;;5075874;28;20033;-84
2023/08/01 10:11:52;;;;;;;9.38;3.45;;;;;;;;;;5075746;28;20440;-84
2023/08/01 10:14:20;;;;;;;4.68;3.33;;;793.60;2022.40;;;;;;5075194;28;20031;-85
2023/08/01 10:16:46;;;;;;;6.45;3.83;;;793.60;2022.40;;;;;;5075331;28;20028;-85
2023/08/01 10:19:13;;;;;;;6.45;3.60;;;794.10;1996.80;;;;;;5075268;28;20077;-85
2023/08/01 10:21:40;;;;;;;6.57;3.53;;;794.20;1996.80;;;;;;5075191;28;20039;-84
2023/08/01 10:24:07;;;;;;;6.57;3.20;;;794.40;1971.20;;;;;;5083236;28;20460;-85
2023/08/01 10:26:33;;;;;;;5.72;3.55;;;794.50;1945.60;;;;;;5096611;28;20020;-83
2023/08/01 10:29:00;;;;;;;5.45;3.25;;;819.20;1920.00;;;;;;5096709;28;20032;-85
2023/08/01 10:31:25;;;;;;;7.50;3.22;;;819.30;1920.00;;;;;;5095384;28;20031;-84
2023/08/01 10:33:52;;;;;;;6.10;3.58;;;819.30;1920.00;;;;;;5095825;28;20035;-86
2023/08/01 10:36:23;;;;;;;4.68;3.15;;;819.30;1920.00;;;;;;5095194;28;20123;-85
2023/08/01 10:38:54;;;;;;;5.43;3.30;;;819.30;1894.40;;;;;;5095707;28;20036;-84
2023/08/01 10:41:33;;;;;;;7.57;3.60;;;794.50;1920.00;;;;;;5095513;28;20271;-83
2023/08/01 10:44:12;;;;;;;7.68;4.50;;;819.30;1894.40;;;;;;5095303;28;20024;-84
2023/08/01 10:46:47;;;;;;;5.15;3.45;;;819.50;1894.40;;;;;;5096246;28;20030;-87
2023/08/01 10:49:13;;;;;;;5.97;3.00;;;819.80;1894.40;;;;;;5094892;28;20024;-85
2023/08/01 10:51:39;;;;;;;7.85;3.75;;;819.90;1868.80;;;;;;5094870;28;20456;-84
2023/08/01 10:54:05;;;;;;;5.88;3.60;;;819.90;1894.40;;;;;;5094900;28;20028;-83
2023/08/01 10:56:31;;;;;;;6.85;4.47;;;;;;;;;;5094070;28;20042;-82
2023/08/01 10:59:00;;;;;;;10.00;3.92;;;845.10;1868.80;;;;;;5095815;28;20047;-83
2023/08/01 11:01:28;;;;;;;6.20;4.00;;;845.20;1868.80;;;;;;5096278;28;20065;-83
2023/08/01 11:03:54;;;;;;;8.27;3.13;;;;;;;;;;5094671;28;20082;-82
2023/08/01 11:06:20;;;;;;;7.78;4.00;;;;;;;;;;5094492;28;20068;-83
2023/08/01 11:08:46;;;;;;;6.07;3.92;;;;;;;;;;5094792;28;20107;-83
2023/08/01 11:11:14;;;;;;;10.68;3.60;;;870.50;1792.00;;;;;;5093039;28;20119;-81
2023/08/01 11:13:39;;;;;;;7.47;3.40;;;845.70;1792.00;;;;;;5112105;28;20058;-83
2023/08/01 11:16:07;;;;;;;4.78;3.05;;;845.70;1792.00;;;;;;5110737;28;20033;-83
2023/08/01 11:18:50;;;;;;;6.63;3.40;;;845.20;1792.00;;;;;;5095938;28;20487;-84
2023/08/01 11:21:27;;;;;;;7.90;3.65;;;845.40;1792.00;;;;;;5096348;28;20020;-82
2023/08/01 11:23:53;;;;;;;7.10;3.90;;;845.50;1792.00;;;;;;5111208;28;20384;-81
2023/08/01 11:26:18;;;;;;;6.85;3.58;;;845.40;1792.00;;;;;;5119555;28;20032;-78
2023/08/01 11:28:45;;;;;;;7.03;2.85;;;870.40;1792.00;;;;;;5093800;28;20047;-82
2023/08/01 11:31:12;;;;;;;8.18;2.97;;;845.50;1817.60;;;;;;5074524;28;20452;-83
2023/08/01 11:33:38;;;;;;;7.90;3.65;;;870.50;1792.00;;;;;;5077303;28;20029;-82
2023/08/01 11:36:05;;;;;;;4.00;2.70;;;870.40;1792.00;;;;;;5093916;28;20017;-83
2023/08/01 11:38:34;;;;;;;6.85;3.30;;;870.80;1817.60;;;;;;5093973;28;20028;-84
2023/08/01 11:41:04;;;;;;;4.90;3.08;;;870.90;1792.00;;;;;;5095057;28;20142;-82
2023/08/01 11:43:42;;;;;;;6.97;3.35;;;870.70;1766.40;;;;;;5094079;28;20032;-84
2023/08/01 11:46:09;;;;;;;8.23;2.95;;;870.90;1792.00;;;;;;5090389;28;20021;-84
2023/08/01 11:48:36;;;;;;;4.45;3.13;;;871.20;1740.80;;;;;;5090839;28;20453;-82
2023/08/01 11:51:02;;;;;;;10.00;3.20;;;871.10;1715.20;;;;;;5090335;28;20028;-83
2023/08/01 11:53:32;;;;;;;6.35;3.45;;;871.10;1715.20;;;;;;5090664;28;20074;-83
2023/08/01 11:55:58;;;;;;;6.88;4.18;;;871.20;1715.20;;;;;;5090556;28;20380;-81
2023/08/01 11:58:31;;;;;;;6.32;4.00;;;896.00;1715.20;;;;;;5092965;28;20036;-84
2023/08/01 12:01:10;;;;;;;5.55;2.78;;;871.30;1664.00;;;;;;5073321;28;20372;-82
2023/08/01 12:04:02;;;;;;;4.97;3.13;;;896.00;1664.00;;;;;;5073213;28;20373;-83
2023/08/01 12:06:32;;;;;;;7.53;3.67;;;871.20;1664.00;;;;;;5072231;28;20063;-83
2023/08/01 12:09:08;;;;;;;6.95;2.90;;;896.00;1638.40;;;;;;5075054;28;20027;-83
2023/08/01 12:11:34;;;;;;;6.57;3.00;;;896.40;1664.00;;;;;;5073722;28;20048;-84
2023/08/01 12:14:04;;;;;;;7.10;3.20;;;896.40;1638.40;;;;;;5073056;28;20046;-82
2023/08/01 12:16:31;;;;;;;5.22;3.60;;;896.50;1612.80;;;;;;5073139;28;20506;-82
2023/08/01 12:18:57;;;;;;;6.63;2.90;;;896.50;1612.80;;;;;;5073438;28;20086;-82